createdAt,value
2018-05-15T00:01:37.586Z,891.90
2018-05-15T00:04:09.905Z,653.70
2018-05-15T01:30:05.454Z,999.90
2018-05-15T01:32:38.272Z,999.90
2018-05-15T01:35:11.735Z,999.90
2018-05-15T01:37:43.799Z,999.90
2018-05-15T01:40:15.592Z,999.90
2018-05-15T01:42:49.114Z,999.90
2018-05-15T01:45:21.113Z,999.90
2018-05-15T01:47:52.893Z,999.90
2018-05-15T01:50:26.271Z,999.90
2018-05-15T01:53:00.836Z,999.90
2018-05-15T01:55:34.939Z,999.90
2018-05-15T01:58:07.372Z,999.90
2018-05-15T02:00:40.304Z,999.90
2018-05-15T02:03:15.550Z,999.90
2018-05-15T02:05:48.559Z,999.90
2018-05-15T02:08:20.767Z,999.90
2018-05-15T02:10:53.373Z,999.90
2018-05-15T02:13:26.456Z,999.90
2018-05-15T02:15:59.714Z,999.90
2018-05-15T02:18:32.070Z,999.90
2018-05-15T02:21:04.774Z,999.90
2018-05-15T02:23:37.973Z,999.90
2018-05-15T02:26:10.377Z,999.90
2018-05-15T02:28:47.270Z,999.90
2018-05-15T02:31:23.375Z,999.90
2018-05-15T02:33:55.959Z,999.90
2018-05-15T02:36:28.738Z,999.90
2018-05-15T02:39:00.777Z,997.43
2018-05-15T02:41:34.970Z,999.90
2018-05-15T02:44:08.512Z,999.90
2018-05-15T02:46:42.574Z,999.90
2018-05-15T02:49:15.411Z,998.53
2018-05-15T02:51:47.991Z,999.90
2018-05-15T02:54:20.439Z,999.90
2018-05-15T02:56:56.816Z,999.90
2018-05-15T02:59:31.078Z,999.90
2018-05-15T03:02:03.535Z,999.90
2018-05-15T03:04:35.694Z,999.90
2018-05-15T03:07:08.695Z,999.90
2018-05-15T03:09:43.378Z,999.90
2018-05-15T03:12:17.054Z,999.90
2018-05-15T03:14:54.653Z,999.90
2018-05-15T03:17:28.116Z,999.90
2018-05-15T03:20:02.018Z,885.90
2018-05-15T03:22:35.577Z,712.03
2018-05-15T03:25:09.831Z,334.33
2018-05-15T03:27:42.815Z,920.67
2018-05-15T03:30:15.369Z,971.57
2018-05-15T03:32:49.534Z,999.90
2018-05-15T03:35:21.893Z,999.90
2018-05-15T03:37:55.970Z,999.90
2018-05-15T03:40:29.230Z,999.90
2018-05-15T03:43:01.911Z,999.90
2018-05-15T03:45:34.497Z,999.90
2018-05-15T03:48:07.398Z,945.97
2018-05-15T03:50:41.236Z,681.83
2018-05-15T03:53:14.955Z,999.90
2018-05-15T03:55:48.693Z,999.90
2018-05-15T03:58:24.259Z,999.90
2018-05-15T04:01:13.932Z,836.10
2018-05-15T04:04:02.573Z,999.90
2018-05-15T04:06:51.790Z,999.90
2018-05-15T04:09:27.075Z,999.90
2018-05-15T04:12:02.591Z,999.90
2018-05-15T04:14:34.773Z,999.90
2018-05-15T04:17:07.654Z,999.90
2018-05-15T04:19:40.381Z,999.90
2018-05-15T04:22:13.004Z,999.57
2018-05-15T04:24:45.341Z,550.97
2018-05-15T04:27:20.891Z,225.53
2018-05-15T04:29:54.334Z,263.57
2018-05-15T04:32:27.759Z,477.83
2018-05-15T04:35:01.849Z,435.87
2018-05-15T04:37:35.734Z,864.70
2018-05-15T04:40:09.475Z,844.30
2018-05-15T04:42:41.834Z,152.73
2018-05-15T04:45:17.318Z,313.93
2018-05-15T04:47:51.250Z,214.67
2018-05-15T04:50:32.712Z,352.73
2018-05-15T04:53:06.350Z,121.97
2018-05-15T04:55:39.621Z,515.03
2018-05-15T04:58:14.397Z,521.90
2018-05-15T05:00:47.083Z,288.07
2018-05-15T05:03:19.321Z,327.37
2018-05-15T05:05:52.917Z,999.90
2018-05-15T05:08:28.512Z,999.90
2018-05-15T05:11:07.595Z,999.90
2018-05-15T05:13:43.892Z,999.90
2018-05-15T05:16:21.893Z,758.00
2018-05-15T05:18:55.715Z,999.90
2018-05-15T05:21:28.011Z,999.90
2018-05-15T05:24:01.275Z,995.20
2018-05-15T05:26:34.974Z,790.30
2018-05-15T05:29:07.419Z,886.37
2018-05-15T05:31:40.738Z,696.70
2018-05-15T05:34:12.676Z,923.93
2018-05-15T05:36:46.813Z,853.43
2018-05-15T05:39:20.682Z,203.00
2018-05-15T05:41:54.594Z,516.07
2018-05-15T05:44:27.019Z,999.90
2018-05-15T05:46:59.529Z,999.90
2018-05-15T05:49:34.138Z,999.90
2018-05-15T05:52:11.615Z,999.90
2018-05-15T05:54:44.831Z,999.90
2018-05-15T05:57:17.795Z,999.90
2018-05-15T05:59:52.992Z,999.90
2018-05-15T06:02:24.877Z,999.90
2018-05-15T06:04:58.334Z,999.90
2018-05-15T06:07:30.980Z,999.90
2018-05-15T06:10:04.253Z,999.90
2018-05-15T06:12:40.195Z,999.90
2018-05-15T06:15:19.696Z,999.90
2018-05-15T06:17:54.398Z,932.67
2018-05-15T06:20:31.714Z,839.00
2018-05-15T06:23:06.713Z,556.93
2018-05-15T06:25:43.855Z,999.90
2018-05-15T06:28:17.796Z,999.90
2018-05-15T06:30:53.395Z,932.23
2018-05-15T06:33:27.249Z,598.47
2018-05-15T06:36:01.500Z,81.00
2018-05-15T06:38:34.907Z,34.27
2018-05-15T06:41:10.718Z,107.97
2018-05-15T06:43:47.091Z,33.67
2018-05-15T06:46:20.592Z,59.40
2018-05-15T06:48:55.355Z,50.03
2018-05-15T06:51:28.597Z,64.67
2018-05-15T06:54:00.672Z,55.73
2018-05-15T06:56:36.359Z,96.13
2018-05-15T06:59:10.016Z,55.87
2018-05-15T07:01:44.957Z,40.50
2018-05-15T07:04:20.276Z,41.47
2018-05-15T07:06:57.192Z,51.37
2018-05-15T07:09:31.016Z,38.23
2018-05-15T07:12:04.795Z,45.67
2018-05-15T07:14:37.751Z,49.33
2018-05-15T07:17:12.756Z,66.25
2018-05-15T07:19:51.633Z,65.00
2018-05-15T07:22:24.972Z,72.20
2018-05-15T07:24:58.276Z,59.55
2018-05-15T07:27:31.653Z,33.15
2018-05-15T07:30:04.057Z,36.33
2018-05-15T07:32:37.479Z,45.75
2018-05-15T07:35:17.874Z,56.78
2018-05-15T07:37:52.736Z,67.70
2018-05-15T07:40:26.377Z,740.22
2018-05-15T07:43:00.777Z,174.45
2018-05-15T07:45:34.992Z,133.27
2018-05-15T07:48:09.344Z,145.05
2018-05-15T07:50:46.154Z,127.35
2018-05-15T07:53:18.721Z,162.30
2018-05-15T07:55:53.334Z,166.00
2018-05-15T07:58:27.035Z,117.40
2018-05-15T08:01:07.016Z,166.18
2018-05-15T08:03:41.559Z,180.95
2018-05-15T08:06:14.956Z,123.57
2018-05-15T08:08:47.760Z,68.20
2018-05-15T08:11:21.253Z,34.92
2018-05-15T08:13:53.773Z,36.22
2018-05-15T08:16:26.953Z,28.75
2018-05-15T08:19:05.950Z,29.95
2018-05-15T08:21:40.422Z,27.58
2018-05-15T08:24:13.391Z,28.73
2018-05-15T08:26:48.035Z,26.10
2018-05-15T08:29:22.991Z,27.23
2018-05-15T08:31:57.561Z,25.80
2018-05-15T08:34:29.317Z,27.67
2018-05-15T08:37:04.916Z,27.87
2018-05-15T08:39:39.680Z,24.40
2018-05-15T08:42:14.831Z,23.67
2018-05-15T08:44:54.122Z,27.53
2018-05-15T08:47:28.957Z,27.80
2018-05-15T08:50:06.224Z,46.03
2018-05-15T08:52:39.854Z,74.60
2018-05-15T08:55:13.637Z,89.53
2018-05-15T08:57:49.135Z,104.50
2018-05-15T09:00:22.234Z,99.63
2018-05-15T09:02:56.833Z,86.43
2018-05-15T09:05:32.020Z,79.43
2018-05-15T09:08:08.016Z,86.07
2018-05-15T09:10:44.290Z,88.23
2018-05-15T09:13:23.137Z,84.43
2018-05-15T09:16:00.759Z,88.93
2018-05-15T09:18:36.017Z,83.47
2018-05-15T09:21:10.075Z,161.43
2018-05-15T09:23:44.778Z,103.17
2018-05-15T09:26:18.571Z,87.87
2018-05-15T09:28:53.315Z,85.53
2018-05-15T09:31:27.374Z,65.87
2018-05-15T09:34:04.214Z,81.27
2018-05-15T09:36:38.953Z,124.50
2018-05-15T09:39:13.930Z,120.07
2018-05-15T09:41:48.311Z,88.97
2018-05-15T09:44:24.696Z,88.00
2018-05-15T09:46:57.967Z,100.03
2018-05-15T09:49:33.943Z,79.10
2018-05-15T09:52:08.918Z,68.13
2018-05-15T09:54:41.595Z,75.57
2018-05-15T09:57:14.741Z,78.93
2018-05-15T09:59:48.552Z,64.57
2018-05-15T10:02:22.735Z,45.60
2018-05-15T10:04:58.358Z,43.73
2018-05-15T10:07:31.747Z,37.83
2018-05-15T10:10:05.499Z,43.57
2018-05-15T10:12:37.515Z,36.80
2018-05-15T10:15:10.658Z,74.23
2018-05-15T10:17:45.240Z,32.90
2018-05-15T10:20:19.723Z,38.33
2018-05-15T10:22:52.699Z,39.67
2018-05-15T10:25:30.475Z,36.07
2018-05-15T10:28:04.668Z,33.40
2018-05-15T10:30:40.155Z,48.97
2018-05-15T10:33:14.711Z,60.50
2018-05-15T10:35:49.493Z,62.10
2018-05-15T10:38:23.454Z,71.17
2018-05-15T10:40:59.839Z,66.93
2018-05-15T10:43:36.822Z,69.97
2018-05-15T10:46:16.676Z,59.90
2018-05-15T10:48:50.496Z,100.57
2018-05-15T10:51:23.699Z,77.77
2018-05-15T10:53:57.676Z,125.87
2018-05-15T10:56:31.871Z,119.93
2018-05-15T10:59:05.137Z,98.97
2018-05-15T11:01:39.470Z,55.00
2018-05-15T11:04:12.258Z,71.97
2018-05-15T11:06:48.296Z,35.83
2018-05-15T11:09:21.677Z,32.23
2018-05-15T11:11:54.799Z,37.90
2018-05-15T11:14:30.154Z,46.77
2018-05-15T11:17:02.938Z,47.03
2018-05-15T11:19:53.023Z,44.33
2018-05-15T11:22:42.254Z,31.60
2018-05-15T11:25:15.816Z,35.27
2018-05-15T11:27:47.950Z,30.77
2018-05-15T11:30:20.974Z,34.33
2018-05-15T11:32:55.255Z,62.70
2018-05-15T11:35:29.298Z,40.50
2018-05-15T11:38:02.775Z,31.73
2018-05-15T11:40:34.654Z,31.20
2018-05-15T11:43:07.575Z,34.37
2018-05-15T11:45:42.492Z,61.70
2018-05-15T11:48:24.395Z,43.73
2018-05-15T11:50:59.528Z,47.53
2018-05-15T11:53:31.619Z,62.73
2018-05-15T11:56:05.136Z,87.67
2018-05-15T11:58:39.830Z,85.90
2018-05-15T12:01:12.530Z,109.13
2018-05-15T12:03:46.056Z,99.33
2018-05-15T12:06:22.297Z,101.43
2018-05-15T12:08:56.012Z,111.13
2018-05-15T12:11:29.334Z,112.57
2018-05-15T12:14:03.523Z,119.97
2018-05-15T12:16:38.174Z,136.90
2018-05-15T12:19:11.516Z,134.73
2018-05-15T12:21:46.657Z,143.00
2018-05-15T12:24:21.473Z,144.53
2018-05-15T13:05:29.998Z,999.90
2018-05-15T13:08:09.896Z,999.90
2018-05-15T13:10:43.256Z,670.93
2018-05-15T13:13:16.959Z,894.53
2018-05-15T13:15:49.371Z,686.40
2018-05-15T13:18:22.237Z,825.97
2018-05-15T13:20:56.098Z,580.20
2018-05-15T13:23:30.600Z,736.67
2018-05-15T13:26:11.236Z,655.27
2018-05-15T13:28:44.657Z,842.57
2018-05-15T13:31:17.094Z,809.93
2018-05-15T13:33:51.560Z,910.17
2018-05-15T13:36:29.932Z,916.77
2018-05-15T13:39:08.379Z,966.27
2018-05-15T13:41:42.175Z,956.87
2018-05-15T13:44:16.011Z,969.40
2018-05-15T13:46:50.374Z,992.67
2018-05-15T13:49:27.633Z,999.90
2018-05-15T13:52:00.796Z,999.90
2018-05-15T13:57:34.017Z,992.00
2018-05-15T14:00:09.492Z,890.57
2018-05-15T14:02:42.699Z,932.17
2018-05-15T14:05:17.889Z,966.83
2018-05-15T14:07:50.258Z,974.23
2018-05-15T14:10:26.695Z,984.00
2018-05-15T14:12:59.393Z,976.13
2018-05-15T14:15:32.835Z,999.90
2018-05-15T14:18:05.341Z,999.90
2018-05-15T14:20:38.721Z,999.90
2018-05-15T14:23:16.915Z,999.90
2018-05-15T14:25:52.057Z,980.87
2018-05-15T14:28:25.304Z,937.93
2018-05-15T14:30:59.568Z,794.57
2018-05-15T14:33:34.388Z,338.53
2018-05-15T14:36:08.879Z,324.10
2018-05-15T14:38:42.335Z,69.77
2018-05-15T14:41:17.351Z,73.40
2018-05-15T14:43:54.158Z,58.83
2018-05-15T14:46:27.338Z,55.67
2018-05-15T14:49:04.652Z,59.90
2018-05-15T14:51:42.490Z,60.80
2018-05-15T14:54:24.279Z,50.23
2018-05-15T14:56:57.512Z,49.80
2018-05-15T14:59:35.276Z,55.03
2018-05-15T15:02:10.989Z,47.70
2018-05-15T15:07:29.592Z,52.20
2018-05-15T15:10:03.253Z,56.50
2018-05-15T15:12:36.893Z,59.40
2018-05-15T15:15:09.757Z,59.90
2018-05-15T15:17:43.988Z,79.53
2018-05-15T15:20:19.660Z,56.83
2018-05-15T15:22:52.912Z,52.50
2018-05-15T15:25:25.594Z,105.20
2018-05-15T15:28:02.813Z,85.23
2018-05-15T15:30:36.377Z,134.63
2018-05-15T15:33:11.035Z,153.27
2018-05-15T15:35:47.775Z,63.97
2018-05-15T15:38:21.112Z,56.17
2018-05-15T15:40:54.974Z,56.17
2018-05-15T15:43:28.331Z,67.23
2018-05-15T15:46:01.716Z,59.37
2018-05-15T15:48:36.355Z,48.13
2018-05-15T15:51:10.497Z,36.47
2018-05-15T15:53:45.193Z,57.37
2018-05-15T15:56:18.416Z,44.87
2018-05-15T15:58:50.859Z,102.77
2018-05-15T16:34:15.056Z,41.30
2018-05-15T16:36:52.616Z,58.80
2018-05-15T16:39:27.336Z,44.53
2018-05-15T16:42:00.361Z,53.17
2018-05-15T16:44:31.970Z,64.77
2018-05-15T16:47:05.818Z,65.40
2018-05-15T16:49:38.354Z,52.93
2018-05-15T16:52:11.035Z,47.20
2018-05-15T16:54:43.560Z,48.20
2018-05-15T16:57:16.437Z,47.27
2018-05-15T16:59:48.535Z,45.10
2018-05-15T17:02:21.076Z,50.53
2018-05-15T17:04:55.420Z,66.63
2018-05-15T17:07:28.271Z,153.43
2018-05-15T17:10:00.840Z,158.60
2018-05-15T17:12:33.491Z,187.90
2018-05-15T17:15:08.672Z,225.07
2018-05-15T17:17:44.297Z,282.20
2018-05-15T17:20:17.932Z,353.47
2018-05-15T17:22:52.090Z,493.33
2018-05-15T17:25:26.935Z,486.03
2018-05-15T17:28:00.291Z,538.07
2018-05-15T17:30:37.792Z,606.93
2018-05-15T17:33:12.072Z,654.13
2018-05-15T17:35:48.432Z,580.87
2018-05-15T17:38:24.618Z,771.13
2018-05-15T17:41:01.292Z,796.13
2018-05-15T17:43:37.311Z,834.70
2018-05-15T17:46:13.417Z,686.97
2018-05-15T17:48:48.913Z,882.63
2018-05-15T17:51:25.848Z,765.97
2018-05-15T17:54:00.431Z,739.77
2018-05-15T19:08:12.460Z,739.77
2018-05-15T19:10:46.901Z,999.90
2018-05-15T19:13:20.847Z,988.27
2018-05-15T19:15:54.923Z,714.13
2018-05-15T19:18:28.820Z,541.37
2018-05-15T19:21:03.204Z,610.47
2018-05-15T19:23:37.960Z,640.70
2018-05-15T19:26:14.699Z,846.67
2018-05-15T19:28:49.516Z,900.83
2018-05-15T19:31:29.578Z,771.63
2018-05-15T19:34:04.068Z,904.43
2018-05-15T19:36:38.721Z,882.63
2018-05-15T19:39:12.338Z,891.30
2018-05-15T19:41:46.342Z,764.70
2018-05-15T19:44:19.060Z,723.80
2018-05-15T19:46:51.840Z,653.00
2018-05-15T19:49:24.743Z,430.63
2018-05-15T19:51:57.100Z,351.77
2018-05-15T19:54:31.200Z,300.27
2018-05-15T19:57:05.462Z,329.43
2018-05-15T19:59:41.295Z,375.87
2018-05-15T20:02:15.104Z,529.57
2018-05-15T20:04:48.704Z,556.13
2018-05-15T20:07:23.826Z,684.20
2018-05-15T20:09:56.699Z,716.27
2018-05-15T20:12:32.222Z,730.60
2018-05-15T20:15:07.009Z,770.73
2018-05-15T20:17:39.844Z,805.93
2018-05-15T20:20:13.665Z,791.00
2018-05-15T20:22:48.598Z,836.43
2018-05-15T20:25:24.228Z,938.30
2018-05-15T20:27:58.660Z,969.97
2018-05-15T20:30:33.582Z,969.33
2018-05-15T20:33:07.040Z,995.67
2018-05-15T20:35:41.479Z,974.07
2018-05-15T20:38:13.804Z,999.90
2018-05-15T20:40:47.419Z,999.90
2018-05-15T20:43:20.658Z,999.90
2018-05-15T20:45:55.962Z,999.90
2018-05-15T20:48:28.978Z,999.90
2018-05-15T20:51:02.266Z,999.90
2018-05-15T20:53:35.882Z,999.90
2018-05-15T20:56:10.401Z,999.90
2018-05-15T20:58:44.506Z,999.90
2018-05-15T21:01:20.103Z,999.90
2018-05-15T21:03:53.161Z,999.90
2018-05-15T21:06:27.858Z,999.90
2018-05-15T21:09:01.304Z,999.90
2018-05-15T21:11:36.118Z,999.90
2018-05-15T21:14:09.363Z,999.90
2018-05-15T21:16:42.843Z,999.90
2018-05-15T21:19:17.562Z,999.90
2018-05-15T21:21:51.046Z,999.90
2018-05-15T21:24:24.099Z,999.90
2018-05-15T21:26:58.421Z,999.90
2018-05-15T21:29:31.279Z,999.90
2018-05-15T21:32:05.466Z,999.90
2018-05-15T21:34:38.222Z,999.90
2018-05-15T21:37:11.060Z,999.90
2018-05-15T21:39:43.730Z,999.90
2018-05-15T21:42:17.297Z,999.90
2018-05-15T21:44:50.567Z,999.90
2018-05-15T21:47:25.640Z,999.90
2018-05-15T21:49:58.561Z,999.90
2018-05-15T21:52:31.380Z,999.90
2018-05-15T21:55:06.060Z,999.90
2018-05-15T21:57:43.284Z,999.90
2018-05-15T22:00:16.606Z,999.90
2018-05-15T22:02:50.366Z,999.90
2018-05-15T22:05:24.559Z,999.90
2018-05-15T22:08:00.462Z,972.97
2018-05-15T22:32:46.888Z,619.83
2018-05-15T22:35:21.131Z,606.67
2018-05-15T22:37:53.905Z,558.50
2018-05-15T22:40:27.844Z,519.97
2018-05-15T22:43:01.247Z,491.13
2018-05-15T22:45:34.855Z,459.20
2018-05-15T22:48:08.529Z,436.73
2018-05-15T22:50:41.423Z,436.43
2018-05-15T22:53:14.846Z,480.53
2018-05-15T22:55:47.484Z,486.63
2018-05-15T22:58:20.927Z,500.77
2018-05-15T23:00:53.304Z,520.10
2018-05-15T23:03:26.246Z,541.33
2018-05-15T23:06:00.070Z,576.87
2018-05-15T23:08:33.621Z,590.63
2018-05-15T23:11:06.145Z,580.10
2018-05-15T23:13:39.508Z,587.63
2018-05-15T23:16:12.193Z,581.47
2018-05-15T23:18:44.844Z,573.10
2018-05-15T23:21:17.065Z,546.47
2018-05-15T23:23:50.304Z,592.80
2018-05-15T23:26:25.294Z,566.67
2018-05-15T23:28:58.169Z,491.83
2018-05-15T23:31:30.489Z,497.33
2018-05-15T23:34:03.027Z,489.03
2018-05-15T23:36:35.406Z,474.43
2018-05-15T23:39:09.206Z,502.10
2018-05-15T23:41:41.604Z,462.53
2018-05-15T23:44:16.883Z,469.87
2018-05-15T23:46:49.387Z,496.87
2018-05-15T23:49:22.131Z,429.47
2018-05-15T23:51:55.593Z,490.93
2018-05-15T23:54:27.947Z,436.67
2018-05-15T23:57:00.207Z,379.83
2018-05-15T23:59:32.725Z,383.87
